Flight Track Log - Related Links

Times and Time Zones

All times are in EDT time to prevent confusion due to time zone crossing. See the ASQ4400 flight status page for this flight to view local times or setup timezone preferences in your user account.

Time Position Orientation Groundspeed Altitude Reporting Facility
EDT Latitude Longitude Course Direction KTS MPH feet Rate Location/Type
Mon 07:53:15 PM 46.7833 -71.3667 184° South 150 173 400  Level Montreal Center
Mon 07:54:15 PM 46.8167 -71.3000 54° Northeast 190 219 2,600 2,050 Climbing Montreal Center
Mon 07:55:15 PM 46.8500 -71.2333 54° Northeast 230 265 4,500 2,350 Climbing Montreal Center
Mon 07:56:00 PM 46.5272 -71.4167 180° South  Level FlightAware Approximate
Mon 07:56:15 PM 46.8000 -71.1833 146° Southeast 260 299 7,300  Level Montreal Center
Mon 07:57:00 PM 46.4413 -71.4167 180° South  Level FlightAware Approximate
Mon 07:57:15 PM 46.7167 -71.2500 209° Southwest 280 322 9,700  Level Montreal Center
Mon 07:58:00 PM 46.3555 -71.4178 184° South  Level FlightAware Approximate
Mon 07:58:15 PM 46.6500 -71.2667 190° South 310 357 11,100  Level Montreal Center
Mon 07:59:15 PM 46.5500 -71.3000 193° South 350 403 12,200 1,350 Climbing Montreal Center
Mon 08:00:15 PM 46.4500 -71.3333 193° South 360 414 13,800 1,600 Climbing Montreal Center
Mon 08:01:15 PM 46.3500 -71.3667 193° South 360 414 15,400 1,500 Climbing Montreal Center
Mon 08:02:15 PM 46.2500 -71.4000 193° South 360 414 16,800 1,300 Climbing Montreal Center
Mon 08:03:15 PM 46.1500 -71.4333 193° South 370 426 18,000 1,300 Climbing Montreal Center
Mon 08:04:15 PM 46.0500 -71.4500 187° South 370 426 19,400 1,550 Climbing Montreal Center
Mon 08:05:15 PM 45.9500 -71.4500 180° South 370 426 21,100 1,650 Climbing Montreal Center
Mon 08:06:15 PM 45.8333 -71.4667 186° South 360 414 22,700 1,300 Climbing Montreal Center
Mon 08:07:15 PM 45.7333 -71.4833 187° South 370 426 23,700 1,050 Climbing Montreal Center
Mon 08:08:15 PM 45.6333 -71.5500 205° Southwest 370 426 24,800 1,100 Climbing Montreal Center
Mon 08:09:15 PM 45.5500 -71.6167 209° Southwest 380 437 25,900 1,050 Climbing Montreal Center
Mon 08:10:15 PM 45.4500 -71.6667 199° South 380 437 26,900 1,000 Climbing Montreal Center
Mon 08:11:15 PM 45.3500 -71.7500 210° Southwest 380 437 27,900 550 Climbing Montreal Center
Mon 08:12:15 PM 45.2667 -71.8000 203° Southwest 390 449 28,000 50 Climbing Montreal Center
Mon 08:13:15 PM 45.1667 -71.9000 215° Southwest 410 472 28,000  Level Montreal Center
Mon 08:14:15 PM 45.0667 -71.9833 210° Southwest 420 483 28,000  Level Montreal Center
Mon 08:15:15 PM 44.9667 -72.0833 215° Southwest 430 495 28,000  Level Montreal Center
Mon 08:16:05 PM 44.8881 -72.1706 218° Southwest 436 502 28,000  Level Boston Center
Mon 08:17:05 PM 44.7842 -72.2617 212° Southwest 436 502 28,000  Level Boston Center
Mon 08:18:05 PM 44.6822 -72.3494 211° Southwest 436 502 28,000  Level Boston Center
Mon 08:19:05 PM 44.5758 -72.4431 212° Southwest 442 509 28,000  Level Boston Center
Mon 08:20:05 PM 44.4925 -72.5128 211° Southwest 442 509 28,000  Level Boston Center
Mon 08:21:06 PM 44.3717 -72.6172 212° Southwest 437 503 28,000 -298 Level Boston Center
Mon 08:22:06 PM 44.2778 -72.7011 213° Southwest 419 482 27,400 -958 Descending Boston Center
Mon 08:23:05 PM 44.1836 -72.7817 212° Southwest 408 470 26,100 -700 Descending Boston Center
Mon 08:24:06 PM 44.1044 -72.8506 212° Southwest 394 453 26,000 -50 Descending Boston Center
Mon 08:25:05 PM 44.0186 -72.9250 212° Southwest 382 440 26,000  Level Boston Center
Mon 08:26:05 PM 43.9286 -73.0022 212° Southwest 377 434 26,000  Level Boston Center
Mon 08:27:06 PM 43.8386 -73.0792 212° Southwest 382 440 26,000  Level Boston Center
Mon 08:28:06 PM 43.7486 -73.1558 212° Southwest 382 440 26,000  Level Boston Center
Mon 08:30:06 PM 43.5619 -73.3111 211° Southwest 388 447 26,000 -101 Level Boston Center
Mon 08:31:05 PM 43.4636 -73.3897 210° Southwest 399 459 25,700 -857 Descending Boston Center
Mon 08:32:05 PM 43.3606 -73.4767 212° Southwest 419 482 24,300 -1,450 Descending Boston Center
Mon 08:33:05 PM 43.2558 -73.5461 206° Southwest 424 488 22,800 -1,500 Descending Boston Center
Mon 08:34:05 PM 43.1469 -73.5956 198° South 418 481 21,300 -733 Descending Boston Center
Mon 08:36:05 PM 42.9517 -73.7250 206° Southwest 381 438 20,600 -530 Descending Boston Center
Mon 08:37:06 PM 42.8492 -73.7656 196° South 380 437 19,700 -800 Descending Boston Center
Mon 08:38:05 PM 42.7506 -73.8058 197° South 396 456 19,000 -353 Descending Boston Center
Mon 08:39:05 PM 42.6417 -73.8542 198° South 407 468 19,000 -800 Level Boston Center
Mon 08:40:05 PM 42.5244 -73.9050 198° South 412 474 17,400 -1,450 Descending Boston Center
Mon 08:41:05 PM 42.4258 -73.9478 198° South 412 474 16,100 -645 Descending Boston Center
Mon 08:42:06 PM 42.3328 -74.0353 215° Southwest 382 440 16,100  Level Boston Center
Mon 08:43:06 PM 42.2608 -74.1178 220° Southwest 382 440 16,100 -50 Level Boston Center
Mon 08:44:06 PM 42.1822 -74.2247 225° Southwest 377 434 16,000 -350 Descending Boston Center
Mon 08:45:06 PM 42.1161 -74.3125 225° Southwest 371 427 15,400 -1,450 Descending Boston Center
Mon 08:46:06 PM 42.0011 -74.3286 186° South 360 414 13,100 -2,017 Descending Boston Center
Mon 08:47:05 PM 41.9094 -74.3342 183° South 367 422 11,400 -1,462 Descending Boston Center
Mon 08:48:05 PM 41.8028 -74.3478 185° South 362 417 10,200 -1,250 Descending Boston Center
Mon 08:49:05 PM 41.7319 -74.3567 185° South 316 364 8,900 -1,136 Descending Boston Center
Mon 08:50:17 PM 41.6461 -74.3653 184° South 287 330 7,700 -857 Descending Boston Center
Mon 08:51:18 PM 41.5586 -74.3767 186° South 277 319 7,000 -347 Descending Boston Center
Mon 08:52:18 PM 41.4917 -74.3800 182° South 272 313 7,000 -404 Level Boston Center
Mon 08:54:00 PM 41.3170 -74.4189 198° South  Level FlightAware Approximate
Mon 08:56:00 PM 41.2167 -74.3500 90° East 263 303 5,100  Level New York TRACON
Mon 08:57:00 PM 41.1667 -74.3167 153° Southeast 253 291 5,100 -50 Level New York TRACON
Mon 08:58:00 PM 41.1000 -74.2667 151° Southeast 270 311 5,000 -450 Descending New York TRACON
Mon 08:59:00 PM 41.0333 -74.2167 150° Southeast 271 312 4,200 -500 Descending New York TRACON
Mon 09:00:00 PM 40.9667 -74.1667 150° Southeast 266 306 4,000 -400 Descending New York TRACON
Mon 09:01:00 PM 40.8695 -74.1674 227° Southwest  Level Estimated
Mon 09:01:00 PM 40.6925 -74.1687 90° East  Level Estimated
Mon 09:02:00 PM 40.8500 -74.0833 227° Southwest 220 253 3,000  Level New York TRACON

Login

Don't have an account? Register now (free) for customized features, flight alerts, and more!